Time;durP1;ratioP1;P1;durP2;ratioP2;P2;SDS_P1;SDS_P2;PMS_P1;PMS_P2;Temp;Humidity;BMP_temperature;BMP_pressure;BME280_temperature;BME280_humidity;BME280_pressure;Samples;Min_cycle;Max_cycle;Signal;HPM_P1;HPM_P2
2022/07/16 00:03:25;;;;;;;;;;;14.10;99.90;;;13.04;81.92;101287.31;4916521;28;19921;-76
2022/07/16 00:05:50;;;;;;;;;;;14.10;99.90;;;12.99;81.34;101276.97;4958700;28;19913;-76
2022/07/16 00:08:16;;;;;;;;;;;14.00;99.90;;;12.93;82.28;101271.97;4936806;28;19925;-76
2022/07/16 00:10:42;;;;;;;;;;;14.00;99.90;;;12.87;82.82;101273.13;4945077;28;20304;-76
2022/07/16 00:13:08;;;;;;;;;;;13.90;99.90;;;12.86;82.93;101274.06;4943397;28;19916;-77
2022/07/16 00:15:33;;;;;;;;;;;13.90;99.90;;;12.85;83.01;101269.72;4941196;28;20323;-77
2022/07/16 00:20:46;;;;;;;;;;;13.90;99.90;;;12.86;83.89;101263.47;4935447;28;19922;-77
2022/07/16 00:23:11;;;;;;;;;;;13.80;99.90;;;12.86;83.77;101260.84;4941939;28;20308;-77
2022/07/16 00:25:37;;;;;;;;;;;13.90;99.90;;;12.85;83.84;101259.13;4905310;28;19950;-77
2022/07/16 00:28:03;;;;;;;;;;;13.90;99.90;;;12.83;84.02;101242.50;4945326;28;19917;-76
2022/07/16 00:30:29;;;;;;;;;;;13.90;99.90;;;12.78;85.00;101246.28;4936467;28;20264;-76
2022/07/16 00:32:55;;;;;;;;;;;13.80;99.90;;;12.74;85.59;101248.19;4910576;28;19906;-76
2022/07/16 00:35:20;;;;;;;;;;;13.80;99.90;;;12.65;85.58;101244.19;4931780;28;20016;-77
2022/07/16 00:37:48;;;;;;;;;;;13.80;99.90;;;12.57;85.79;101242.84;4898409;28;19906;-76
2022/07/16 00:40:14;;;;;;;;;;;13.70;99.90;;;12.50;87.03;101242.28;4911554;28;19962;-77
2022/07/16 00:42:40;;;;;;;;;;;13.60;99.90;;;12.45;86.76;101236.38;4960201;28;19968;-76
2022/07/16 00:45:06;;;;;;;;;;;13.50;99.90;;;12.42;87.12;101240.00;4914024;28;19945;-77
2022/07/16 00:47:32;;;;;;;;;;;13.50;99.90;;;12.42;87.04;101239.13;4907857;28;19913;-79
2022/07/16 00:49:57;;;;;;;;;;;13.50;99.90;;;12.45;87.66;101239.00;4923418;28;19917;-77
2022/07/16 00:52:23;;;;;;;;;;;13.50;99.90;;;12.49;87.75;101225.59;4961468;28;20440;-77
2022/07/16 00:54:49;;;;;;;;;;;13.50;99.90;;;12.55;87.08;101223.56;4915207;28;19918;-77
2022/07/16 00:57:17;;;;;;;;;;;13.60;99.90;;;12.63;87.00;101216.16;4920158;28;20336;-76
2022/07/16 00:59:43;;;;;;;;;;;13.60;99.90;;;12.65;87.94;101224.84;4946682;28;19929;-76
2022/07/16 01:02:09;;;;;;;;;;;13.70;99.90;;;12.69;87.88;101216.72;4931675;28;19918;-77
2022/07/16 01:04:34;;;;;;;;;;;13.70;99.90;;;12.74;87.77;101211.19;4944160;28;19906;-77
2022/07/16 01:07:01;;;;;;;;;;;13.80;99.90;;;12.77;88.17;101202.31;4954627;28;19909;-77
2022/07/16 01:09:27;;;;;;;;;;;14.10;99.90;;;12.78;88.06;101207.50;4954772;28;19918;-76
2022/07/16 01:11:53;;;;;;;;;;;13.80;99.90;;;12.82;87.57;101206.41;4927464;28;19914;-78
2022/07/16 01:14:21;;;;;;;;;;;13.80;99.90;;;12.82;88.00;101203.78;4953173;28;19977;-77
2022/07/16 01:16:47;;;;;;;;;;;13.80;99.90;;;12.85;87.62;101201.00;4911448;28;19930;-76
2022/07/16 01:19:13;;;;;;;;;;;13.90;99.90;;;12.87;86.85;101201.78;4934455;28;19909;-76
2022/07/16 01:21:40;;;;;;;;;;;13.90;99.90;;;12.90;86.69;101203.41;4938294;28;19910;-76
2022/07/16 01:24:06;;;;;;;;;;;13.90;99.90;;;12.92;86.00;101197.13;4925715;28;19918;-76
2022/07/16 01:26:31;;;;;;;;;;;13.90;99.90;;;12.95;85.71;101190.81;4935456;28;19924;-77
2022/07/16 01:29:06;;;;;;;;;;;13.90;99.90;;;12.97;85.13;101188.09;4935612;28;19922;-77
2022/07/16 01:31:32;;;;;;;;;;;14.00;99.90;;;13.00;84.92;101185.28;4944804;28;20223;-77
2022/07/16 01:36:52;;;;;;;;;;;14.00;99.90;;;13.03;84.75;101174.59;4936273;28;19945;-77
2022/07/16 01:39:17;;;;;;;;;;;14.00;99.90;;;13.05;84.53;101170.94;4962092;28;19925;-77
2022/07/16 01:41:57;;;;;;;;;;;14.00;99.90;;;13.07;84.16;101171.72;4916996;28;19906;-76
2022/07/16 01:44:24;;;;;;;;;;;14.00;99.90;;;13.07;84.32;101174.34;4944501;28;19936;-76
2022/07/16 01:46:54;;;;;;;;;;;14.10;99.90;;;13.07;84.37;101165.56;4943512;28;19918;-77
2022/07/16 01:49:21;;;;;;;;;;;14.10;99.90;;;13.06;84.95;101167.34;4941364;28;20000;-77
2022/07/16 01:51:47;;;;;;;;;;;14.10;99.90;;;13.08;84.60;101164.63;4926208;28;19962;-76
2022/07/16 01:54:13;;;;;;;;;;;14.10;99.90;;;13.06;84.97;101154.13;4969657;28;20005;-76
2022/07/16 01:56:39;;;;;;;;;;;14.00;99.90;;;13.05;85.53;101159.50;4939549;28;19964;-76
2022/07/16 01:59:07;;;;;;;;;;;14.10;99.90;;;13.04;85.73;101149.84;4950253;28;19929;-77
2022/07/16 02:01:33;;;;;;;;;;;14.00;99.90;;;13.01;86.20;101148.22;4945252;28;20012;-74
2022/07/16 02:03:59;;;;;;;;;;;14.10;99.90;;;13.03;86.01;101156.94;4980182;28;19918;-75
2022/07/16 02:06:25;;;;;;;;;;;14.00;99.90;;;13.01;86.86;101137.66;4962048;28;19984;-74
2022/07/16 02:08:51;;;;;;;;;;;14.10;99.90;;;13.00;87.10;101132.44;4962559;28;20314;-76
2022/07/16 02:11:17;;;;;;;;;;;14.00;99.90;;;12.93;89.27;101130.09;4937802;28;19914;-75
2022/07/16 02:13:43;;;;;;;;;;;14.00;99.90;;;12.93;89.33;101123.97;4955653;28;20006;-75
2022/07/16 02:16:10;;;;;;;;;;;14.00;99.90;;;12.90;90.25;101124.13;4951720;28;20379;-75
2022/07/16 02:18:36;;;;;;;;;;;14.00;99.90;;;12.88;90.67;101120.69;4958338;28;19993;-75
2022/07/16 02:21:02;;;;;;;;;;;13.90;99.90;;;12.86;90.50;101110.19;4954782;28;20438;-76
2022/07/16 02:23:28;;;;;;;;;;;13.90;99.90;;;12.85;90.46;101105.84;4953679;28;19960;-76
2022/07/16 02:25:53;;;;;;;;;;;13.90;99.90;;;12.85;91.41;101110.25;4961269;28;19906;-75
2022/07/16 02:28:19;;;;;;;;;;;13.90;99.90;;;12.86;91.18;101110.19;4963405;28;19910;-75
2022/07/16 02:30:47;;;;;;;;;;;13.90;99.90;;;12.86;91.41;101112.84;4942463;28;20396;-75
2022/07/16 02:33:18;;;;;;;;;;;13.90;99.90;;;12.85;92.02;101102.34;4944185;28;19918;-75
2022/07/16 02:35:44;;;;;;;;;;;13.90;99.90;;;12.86;92.42;101098.78;4944912;28;19966;-76
2022/07/16 02:38:11;;;;;;;;;;;13.90;99.90;;;12.85;92.57;101095.28;4945193;28;19929;-76
2022/07/16 02:40:38;;;;;;;;;;;13.90;99.90;;;12.86;93.21;101096.13;4931789;28;19957;-76
2022/07/16 02:43:07;;;;;;;;;;;13.90;99.90;;;12.86;93.32;101090.84;4944891;28;19965;-75
2022/07/16 02:45:35;;;;;;;;;;;13.90;99.90;;;12.84;94.62;101082.13;4942385;28;19906;-76
2022/07/16 02:48:00;;;;;;;;;;;13.90;99.90;;;12.84;95.24;101082.13;4932544;28;19918;-76
2022/07/16 02:50:27;;;;;;;;;;;13.90;99.90;;;12.82;94.69;101084.84;4956147;28;20772;-76
2022/07/16 02:52:52;;;;;;;;;;;13.90;99.90;;;12.84;94.29;101083.00;4944921;28;19910;-76
2022/07/16 02:55:18;;;;;;;;;;;13.90;99.90;;;12.83;95.89;101078.66;4959239;28;20267;-75
2022/07/16 02:57:47;;;;;;;;;;;13.80;99.90;;;12.77;96.76;101070.19;4959595;28;19965;-76
2022/07/16 03:00:13;;;;;;;;;;;13.90;99.90;;;12.72;99.36;101062.44;4944436;28;19917;-76
2022/07/16 03:02:39;;;;;;;;;;;13.80;99.90;;;12.73;99.49;101062.38;4951166;28;19961;-76
2022/07/16 03:05:07;;;;;;;;;;;13.80;99.90;;;12.71;99.47;101058.13;4960681;28;19921;-75
2022/07/16 03:07:32;;;;;;;;;;;13.80;99.90;;;12.63;100.00;101058.50;4960489;28;20001;-75
2022/07/16 03:09:58;;;;;;;;;;;13.80;99.90;;;12.57;100.00;101050.00;4952428;28;19910;-76
2022/07/16 03:12:24;;;;;;;;;;;13.70;99.90;;;12.55;100.00;101052.75;4957053;28;19912;-76
2022/07/16 03:14:58;;;;;;;;;;;13.70;99.90;;;12.51;100.00;101049.41;4940326;28;20448;-75
2022/07/16 03:17:24;;;;;;;;;;;13.70;99.90;;;12.48;100.00;101049.56;4917733;28;20437;-76
2022/07/16 03:19:49;;;;;;;;;;;13.60;99.90;;;12.46;100.00;101047.91;4945385;28;19917;-76
2022/07/16 03:22:16;;;;;;;;;;;13.60;99.90;;;12.43;100.00;101032.22;4939450;28;19906;-77
2022/07/16 03:24:42;;;;;;;;;;;13.60;99.90;;;12.43;100.00;101030.44;4936648;28;19913;-75
2022/07/16 03:27:08;;;;;;;;;;;13.50;99.90;;;12.42;100.00;101027.84;4943779;28;19918;-76
2022/07/16 03:29:33;;;;;;;;;;;13.50;99.90;;;12.40;100.00;101027.97;4939528;28;19918;-76
2022/07/16 03:31:59;;;;;;;;;;;13.50;99.90;;;12.38;100.00;101028.97;4947114;28;19914;-75
2022/07/16 03:34:25;;;;;;;;;;;13.60;99.90;;;12.37;100.00;101019.31;4945273;28;20344;-76
2022/07/16 03:36:50;;;;;;;;;;;13.50;99.90;;;12.39;100.00;101018.31;4955236;28;19987;-76
2022/07/16 03:39:16;;;;;;;;;;;13.50;99.90;;;12.45;100.00;101017.16;4934795;28;20435;-76
2022/07/16 03:41:42;;;;;;;;;;;13.50;99.90;;;12.49;100.00;101014.28;4944264;28;19918;-76
2022/07/16 03:44:16;;;;;;;;;;;13.50;99.90;;;12.56;100.00;101011.34;4919646;28;19922;-76
2022/07/16 03:46:42;;;;;;;;;;;13.60;99.90;;;12.53;100.00;101015.00;4933829;28;19910;-76
2022/07/16 03:49:08;;;;;;;;;;;13.60;99.90;;;12.48;100.00;101004.66;4941422;28;20440;-77
2022/07/16 03:51:34;;;;;;;;;;;13.60;99.90;;;12.45;100.00;101010.09;4954217;28;19960;-76
2022/07/16 03:54:02;;;;;;;;;;;13.60;99.90;;;12.43;100.00;101011.94;4947566;28;20302;-75
2022/07/16 03:56:28;;;;;;;;;;;13.60;99.90;;;12.41;100.00;100997.97;4945592;28;20309;-76
2022/07/16 03:58:53;;;;;;;;;;;13.60;99.90;;;12.42;100.00;100994.41;4947363;28;19916;-76
2022/07/16 04:01:19;;;;;;;;;;;13.60;99.90;;;12.44;100.00;100994.31;4957354;28;19913;-76
2022/07/16 04:03:45;;;;;;;;;;;13.60;99.90;;;12.45;100.00;100991.59;4953403;28;19918;-76
2022/07/16 04:06:11;;;;;;;;;;;13.50;99.90;;;12.43;100.00;100977.59;4931611;28;19921;-76
2022/07/16 04:08:37;;;;;;;;;;;13.50;99.90;;;12.43;100.00;100972.31;4953913;28;19910;-76
2022/07/16 04:11:03;;;;;;;;;;;13.60;99.90;;;12.44;100.00;100974.06;4953420;28;20289;-76
2022/07/16 04:13:28;;;;;;;;;;;13.60;99.90;;;12.47;100.00;100965.97;4970774;28;19918;-76
2022/07/16 04:15:57;;;;;;;;;;;13.60;99.90;;;12.51;100.00;100961.38;4956716;28;19926;-75
2022/07/16 04:18:22;;;;;;;;;;;13.60;99.90;;;12.52;100.00;100963.94;4931462;28;20009;-76
2022/07/16 04:20:48;;;;;;;;;;;13.60;99.90;;;12.56;100.00;100947.94;4948596;28;19916;-76
2022/07/16 04:23:14;;;;;;;;;;;13.60;99.90;;;12.60;100.00;100957.44;4959007;28;19907;-76
2022/07/16 04:25:40;;;;;;;;;;;13.70;99.90;;;12.62;100.00;100951.13;4951870;28;19911;-76
2022/07/16 04:28:06;;;;;;;;;;;13.70;99.90;;;12.65;100.00;100958.03;4954862;28;19914;-76
2022/07/16 04:30:34;;;;;;;;;;;13.70;99.90;;;12.63;100.00;100947.53;4948275;28;20405;-76
2022/07/16 04:33:00;;;;;;;;;;;13.70;99.90;;;12.65;100.00;100950.09;4946933;28;19905;-76
2022/07/16 04:35:25;;;;;;;;;;;13.70;99.90;;;12.67;100.00;100945.59;4944720;28;20542;-76
2022/07/16 04:37:51;;;;;;;;;;;13.70;99.90;;;12.72;100.00;100949.72;4944390;28;20259;-75
2022/07/16 04:40:17;;;;;;;;;;;13.80;99.90;;;12.80;100.00;100944.03;4912527;28;19913;-76
2022/07/16 04:42:44;;;;;;;;;;;13.80;99.90;;;12.84;100.00;100935.00;4956403;28;19906;-76
2022/07/16 04:45:11;;;;;;;;;;;13.80;99.90;;;12.87;100.00;100934.84;4947990;28;19949;-76
2022/07/16 04:47:45;;;;;;;;;;;13.90;99.90;;;12.83;100.00;100928.03;4930924;28;19918;-76
2022/07/16 04:50:11;;;;;;;;;;;13.90;99.90;;;12.84;100.00;100939.44;4959753;28;20013;-76
2022/07/16 04:52:37;;;;;;;;;;;13.90;99.90;;;12.82;100.00;100936.88;4919871;28;19910;-75
2022/07/16 04:55:03;;;;;;;;;;;13.90;99.90;;;12.78;100.00;100939.75;4944987;28;19925;-76
2022/07/16 04:57:32;;;;;;;;;;;13.90;99.90;;;12.76;100.00;100947.75;4933827;28;19926;-76
2022/07/16 04:59:57;;;;;;;;;;;13.90;99.90;;;12.73;100.00;100938.19;4925206;28;19909;-76
2022/07/16 05:05:08;;;;;;;;;;;13.80;99.90;;;12.74;100.00;100939.06;4954277;28;19913;-76
2022/07/16 05:07:34;;;;;;;;;;;13.90;99.90;;;12.80;100.00;100937.88;4945639;28;19921;-76
2022/07/16 05:10:00;;;;;;;;;;;13.80;99.90;;;12.84;100.00;100950.00;4962724;28;20941;-76
2022/07/16 05:12:26;;;;;;;;;;;13.90;99.90;;;12.87;100.00;100940.13;4886672;28;19974;-77
2022/07/16 05:14:52;;;;;;;;;;;13.90;99.90;;;12.90;100.00;100933.84;4918668;28;19961;-77
2022/07/16 05:17:18;;;;;;;;;;;14.00;99.90;;;12.97;100.00;100951.06;4942018;28;19972;-76
2022/07/16 05:19:43;;;;;;;;;;;14.00;99.90;;;13.03;100.00;100950.75;4928893;28;19920;-76
2022/07/16 05:22:09;;;;;;;;;;;14.00;99.90;;;13.10;100.00;100952.13;4945773;28;19921;-76
2022/07/16 05:24:36;;;;;;;;;;;14.10;99.90;;;13.10;100.00;100945.97;4956112;28;19957;-77
2022/07/16 05:27:02;;;;;;;;;;;14.10;99.90;;;13.11;100.00;100947.72;4932482;28;19924;-77
2022/07/16 05:29:27;;;;;;;;;;;14.10;99.90;;;13.10;100.00;100946.81;4934982;28;19914;-77
2022/07/16 05:31:58;;;;;;;;;;;14.20;99.90;;;13.06;100.00;100955.00;4930571;28;19906;-77
2022/07/16 05:34:23;;;;;;;;;;;14.20;99.90;;;13.04;100.00;100962.16;4922038;28;19910;-77
2022/07/16 05:36:49;;;;;;;;;;;14.20;99.90;;;13.12;100.00;100959.97;4890088;28;19918;-77
2022/07/16 05:39:15;;;;;;;;;;;14.20;99.90;;;13.27;100.00;100953.84;4926519;28;20363;-77
2022/07/16 05:41:41;;;;;;;;;;;14.20;99.90;;;13.45;100.00;100961.75;4945584;28;19910;-77
2022/07/16 05:44:06;;;;;;;;;;;14.50;99.90;;;13.97;100.00;100968.56;4936277;28;19949;-77
2022/07/16 05:46:35;;;;;;;;;;;14.60;99.90;;;14.42;100.00;100980.94;4868068;28;19905;-77
2022/07/16 05:49:00;;;;;;;;;;;14.80;99.90;;;17.83;100.00;100985.25;4958008;28;19916;-78
2022/07/16 05:51:26;;;;;;;;;;;16.70;99.90;;;17.88;93.78;100981.38;4930934;28;19922;-77
2022/07/16 05:53:52;;;;;;;;;;;17.00;99.90;;;16.75;91.96;100975.97;4935832;28;20291;-77
2022/07/16 05:56:17;;;;;;;;;;;17.00;99.90;;;16.01;95.20;100977.41;4959945;28;19922;-76
2022/07/16 05:58:43;;;;;;;;;;;16.90;99.90;;;15.50;100.00;100972.63;4939411;28;19917;-77
2022/07/16 06:01:09;;;;;;;;;;;16.60;99.90;;;15.04;100.00;100979.97;4958851;28;19960;-77
2022/07/16 06:03:36;;;;;;;;;;;16.30;99.90;;;14.72;100.00;100974.81;4936625;28;20292;-77
2022/07/16 06:06:04;;;;;;;;;;;16.00;99.90;;;14.50;100.00;100984.00;4908037;28;19914;-77
2022/07/16 06:08:30;;;;;;;;;;;15.60;99.90;;;14.36;100.00;100991.91;4948864;28;19917;-77
2022/07/16 06:10:56;;;;;;;;;;;15.60;99.90;;;14.32;100.00;100996.53;4928019;28;19910;-78
2022/07/16 06:13:22;;;;;;;;;;;15.50;99.90;;;14.39;100.00;100996.19;4954738;28;19944;-77
2022/07/16 06:15:48;;;;;;;;;;;15.40;99.90;;;14.49;100.00;101008.81;4896241;28;19925;-77
2022/07/16 06:18:14;;;;;;;;;;;15.50;99.90;;;14.63;100.00;101004.53;4943177;28;21167;-76
2022/07/16 06:20:40;;;;;;;;;;;15.50;99.90;;;15.15;100.00;101023.44;4941957;28;19965;-76
2022/07/16 06:23:05;;;;;;;;;;;15.70;99.90;;;14.97;100.00;101025.41;4947483;28;19964;-76
2022/07/16 06:25:32;;;;;;;;;;;15.80;99.90;;;14.86;100.00;101029.63;4946272;28;19968;-76
2022/07/16 06:27:58;;;;;;;;;;;15.80;99.90;;;15.07;100.00;101025.69;4939589;28;19989;-76
2022/07/16 06:30:23;;;;;;;;;;;15.90;99.90;;;15.55;100.00;101042.22;4917211;28;19914;-77
2022/07/16 06:32:49;;;;;;;;;;;16.30;99.90;;;16.37;100.00;101037.00;4953648;28;19910;-76
2022/07/16 06:35:15;;;;;;;;;;;16.70;99.90;;;16.19;100.00;101031.94;4929350;28;19921;-77
2022/07/16 06:37:41;;;;;;;;;;;16.70;99.90;;;16.04;100.00;101040.91;4954233;28;19921;-76
2022/07/16 06:40:07;;;;;;;;;;;16.80;99.90;;;15.64;100.00;101037.28;4916635;28;19976;-76
2022/07/16 06:42:35;;;;;;;;;;;16.60;99.90;;;15.39;100.00;101036.16;4935153;28;19921;-77
2022/07/16 06:45:01;;;;;;;;;;;16.60;99.90;;;16.03;100.00;101047.19;4928632;28;19915;-76
2022/07/16 06:47:27;;;;;;;;;;;16.60;99.90;;;17.26;97.82;101052.31;4913926;28;20283;-77
2022/07/16 06:49:53;;;;;;;;;;;17.20;99.90;;;17.29;92.63;101054.75;4940479;28;19965;-76
2022/07/16 06:52:19;;;;;;;;;;;17.60;99.90;;;16.64;91.49;101055.59;4944266;28;20385;-77
2022/07/16 06:54:45;;;;;;;;;;;17.60;99.90;;;15.97;95.16;101048.44;4943521;28;19925;-77
2022/07/16 06:57:10;;;;;;;;;;;17.20;99.90;;;16.05;96.77;101045.31;4930627;28;19949;-76
2022/07/16 06:59:36;;;;;;;;;;;17.10;99.90;;;16.01;98.04;101051.75;4957562;28;19920;-77
2022/07/16 07:02:02;;;;;;;;;;;17.00;99.90;;;16.20;97.87;101052.28;4955504;28;20393;-76
2022/07/16 07:04:28;;;;;;;;;;;17.00;99.90;;;16.10;93.96;101053.81;4921456;28;19906;-77
2022/07/16 07:06:53;;;;;;;;;;;17.00;99.90;;;15.85;91.11;101059.81;5002019;22;19920;-75
2022/07/16 07:09:19;;;;;;;;;;;16.90;99.90;;;16.04;92.62;101071.94;4988469;28;19925;-76
2022/07/16 07:11:45;;;;;;;;;;;16.90;99.90;;;16.15;90.20;101070.28;4982224;28;20264;-76
2022/07/16 07:14:11;;;;;;;;;;;17.00;99.90;;;16.15;89.21;101059.66;5012145;28;19912;-75
2022/07/16 07:16:37;;;;;;;;;;;17.00;99.90;;;16.08;91.14;101076.13;4977688;28;20388;-76
2022/07/16 07:19:03;;;;;;;;;;;17.00;99.90;;;18.75;80.08;101092.19;4960430;28;19913;-76
2022/07/16 07:21:29;;;;;;;;;;;18.00;99.90;;;18.35;77.50;101083.66;4960963;28;19910;-76
2022/07/16 07:23:54;;;;;;;;;;;18.70;99.90;;;18.41;76.84;101093.84;4971353;28;20100;-76
2022/07/16 07:26:20;;;;;;;;;;;18.80;99.90;;;17.98;75.52;101092.50;4971057;28;19963;-76
2022/07/16 07:28:46;;;;;;;;;;;18.70;99.90;;;16.86;78.96;101086.09;4954337;28;19910;-76
2022/07/16 07:31:11;;;;;;;;;;;18.40;99.90;;;18.28;75.11;101099.25;4945330;28;19906;-77
2022/07/16 07:33:38;;;;;;;;;;;18.50;99.90;;;20.11;69.92;101095.06;4952301;28;19920;-76
2022/07/16 07:36:04;;;;;;;;;;;19.50;99.90;;;20.76;62.67;101112.91;4968489;28;20627;-76
2022/07/16 07:38:29;;;;;;;;;;;20.50;99.90;;;21.48;60.29;101114.81;4938935;28;19921;-76
2022/07/16 07:40:55;;;;;;;;;;;21.30;99.90;;;21.89;58.95;101118.38;5009017;28;19913;-76
2022/07/16 07:43:21;;;;;;;;;;;21.90;99.90;;;20.91;60.15;101110.78;4984272;28;19921;-76
2022/07/16 07:45:46;;;;;;;;;;;22.10;99.90;;;19.15;63.94;101115.03;4943481;28;19928;-75
2022/07/16 07:48:13;;;;;;;;;;;21.20;99.90;;;17.47;66.78;101123.63;4970908;28;19913;-76
2022/07/16 07:50:38;;;;;;;;;;;19.90;99.90;;;16.38;69.26;101110.47;4963149;28;20012;-75
2022/07/16 07:53:04;;;;;;;;;;;18.80;99.90;;;15.56;71.18;101130.66;4978637;28;20267;-76
2022/07/16 07:55:31;;;;;;;;;;;17.90;99.90;;;17.62;68.60;101142.06;4977548;28;19968;-75
2022/07/16 07:57:57;;;;;;;;;;;18.10;99.90;;;19.20;64.84;101150.22;4945631;28;19921;-76
2022/07/16 08:00:23;;;;;;;;;;;19.00;99.90;;;20.59;63.14;101149.06;4943726;28;19920;-76
2022/07/16 08:02:49;;;;;;;;;;;20.10;99.90;;;21.38;59.27;101154.09;4953021;28;19929;-76
2022/07/16 08:05:17;;;;;;;;;;;21.00;99.90;;;21.31;57.81;101166.28;4964684;28;19996;-77
2022/07/16 08:07:43;;;;;;;;;;;21.50;99.90;;;20.85;56.89;101154.94;4969628;28;19921;-75
2022/07/16 08:10:09;;;;;;;;;;;21.40;99.90;;;20.78;56.65;101163.63;4962187;28;20364;-76
2022/07/16 08:12:36;;;;;;;;;;;21.30;99.90;;;21.15;54.13;101166.75;4945566;28;19916;-77
2022/07/16 08:15:02;;;;;;;;;;;21.50;99.90;;;21.11;52.78;101170.66;4971755;28;20361;-75
2022/07/16 08:17:27;;;;;;;;;;;21.60;99.00;;;21.14;53.47;101173.06;4970815;28;19957;-77
2022/07/16 08:19:55;;;;;;;;;;;21.70;99.40;;;21.04;55.10;101175.69;4969351;28;19917;-77
2022/07/16 08:22:21;;;;;;;;;;;21.60;99.90;;;19.53;55.75;101173.50;4934960;28;19906;-75
2022/07/16 08:27:31;;;;;;;;;;;19.90;99.90;;;19.19;61.07;101180.56;4980245;28;19959;-77
2022/07/16 08:29:56;;;;;;;;;;;19.80;99.90;;;19.30;56.04;101175.25;4971137;28;20312;-76
2022/07/16 08:32:22;;;;;;;;;;;19.80;99.90;;;19.03;55.95;101176.38;4970361;28;19940;-76
2022/07/16 08:34:48;;;;;;;;;;;19.70;99.90;;;19.46;55.81;101185.63;4976624;28;19920;-76
2022/07/16 08:37:14;;;;;;;;;;;19.80;99.90;;;19.35;56.50;101188.25;4986581;28;19975;-76
2022/07/16 08:39:42;;;;;;;;;;;19.80;99.90;;;19.35;58.02;101191.78;4935678;28;20340;-76
2022/07/16 08:42:10;;;;;;;;;;;19.90;99.90;;;19.14;57.79;101190.75;4961190;28;19906;-76
2022/07/16 08:44:39;;;;;;;;;;;19.90;99.90;;;18.67;57.80;101187.09;4963366;28;19979;-76
2022/07/16 08:47:06;;;;;;;;;;;19.40;99.90;;;17.93;59.59;101203.03;4956480;28;20390;-76
2022/07/16 08:49:35;;;;;;;;;;;19.30;99.90;;;18.13;59.64;101199.81;4946009;28;19913;-76
2022/07/16 08:52:02;;;;;;;;;;;19.20;99.90;;;17.97;59.99;101200.03;4978835;28;19918;-75
2022/07/16 08:54:29;;;;;;;;;;;19.10;99.90;;;17.54;58.76;101218.97;4976473;28;19913;-76
2022/07/16 08:56:54;;;;;;;;;;;18.80;99.90;;;17.38;63.08;101223.59;4966147;28;20263;-76
2022/07/16 08:59:23;;;;;;;;;;;18.60;99.90;;;17.60;63.03;101217.66;4953040;28;19923;-76
2022/07/16 09:01:49;;;;;;;;;;;18.60;99.90;;;18.00;62.06;101199.81;4982848;28;19910;-76
2022/07/16 09:04:15;;;;;;;;;;;18.70;99.90;;;17.79;62.00;101236.75;4982050;28;19921;-76
2022/07/16 09:06:40;;;;;;;;;;;18.70;99.90;;;17.92;62.50;101234.13;4947688;28;19915;-76
2022/07/16 09:09:06;;;;;;;;;;;18.80;99.90;;;17.86;61.38;101234.59;4972718;28;19921;-77
2022/07/16 09:11:35;;;;;;;;;;;18.80;99.90;;;18.01;60.11;101237.97;4982562;28;19912;-76
2022/07/16 09:14:11;;;;;;;;;;;18.90;99.90;;;18.09;57.81;101237.44;4975269;28;19963;-77
2022/07/16 09:16:39;;;;;;;;;;;19.00;99.90;;;18.41;58.24;101236.00;4983012;28;19925;-77
2022/07/16 09:19:17;;;;;;;;;;;19.10;99.90;;;18.71;55.96;101236.59;4967089;28;19917;-77
2022/07/16 09:22:01;;;;;;;;;;;19.30;99.90;;;18.22;55.61;101243.59;4970265;28;19959;-77
2022/07/16 09:24:52;;;;;;;;;;;18.90;99.10;;;17.49;55.91;101233.53;4979655;28;20005;-76
2022/07/16 09:27:22;;;;;;;;;;;18.50;99.90;;;17.48;59.04;101255.81;4960712;28;19975;-77
2022/07/16 09:30:06;;;;;;;;;;;18.60;99.90;;;17.72;58.06;101259.44;4965467;28;19936;-77
2022/07/16 09:32:36;;;;;;;;;;;18.60;99.90;;;17.27;59.05;101253.59;4955174;28;19984;-78
2022/07/16 09:35:05;;;;;;;;;;;18.50;99.90;;;17.31;62.20;101252.44;4965022;28;20398;-77
2022/07/16 09:37:52;;;;;;;;;;;18.30;99.90;;;17.67;60.84;101261.59;4973416;28;19922;-77
2022/07/16 09:40:35;;;;;;;;;;;18.40;99.90;;;18.09;57.59;101264.94;4963728;28;19930;-76
2022/07/16 09:43:06;;;;;;;;;;;18.70;99.90;;;18.39;56.61;101277.06;4980240;28;19992;-77
2022/07/16 09:45:44;;;;;;;;;;;19.00;99.90;;;17.88;57.06;101274.41;4957211;28;20377;-77
2022/07/16 09:48:35;;;;;;;;;;;18.80;99.90;;;17.55;58.55;101268.56;4956084;28;20529;-77
2022/07/16 09:51:20;;;;;;;;;;;18.70;99.90;;;17.91;58.14;101282.22;4976476;28;19913;-77
2022/07/16 09:53:57;;;;;;;;;;;18.70;99.90;;;18.05;57.79;101284.75;4945854;28;19960;-77
2022/07/16 09:56:32;;;;;;;;;;;18.80;99.90;;;17.99;57.81;101294.03;4962970;28;19918;-77
2022/07/16 09:58:58;;;;;;;;;;;18.80;99.90;;;18.35;57.75;101294.25;4968751;28;20436;-76
2022/07/16 10:01:27;;;;;;;;;;;19.10;99.90;;;18.48;56.40;101292.41;4970418;28;19995;-76
2022/07/16 10:03:58;;;;;;;;;;;19.30;99.90;;;17.74;57.51;101294.81;4972717;28;19917;-74
2022/07/16 10:06:26;;;;;;;;;;;19.00;99.90;;;17.16;58.17;101298.69;4961567;28;19996;-77
2022/07/16 10:08:53;;;;;;;;;;;18.60;99.90;;;17.82;60.70;101308.50;4944299;28;19925;-76
2022/07/16 10:11:19;;;;;;;;;;;18.90;99.60;;;18.22;56.09;101307.56;4954810;28;19968;-77
2022/07/16 10:13:52;;;;;;;;;;;18.90;99.50;;;18.26;55.29;101310.88;4949751;28;19905;-76
2022/07/16 10:16:36;;;;;;;;;;;19.00;99.20;;;18.17;55.31;101313.22;4965752;28;19921;-76
2022/07/16 10:19:03;;;;;;;;;;;19.40;99.80;;;18.84;55.10;101322.78;4917179;28;20012;-76
2022/07/16 10:21:31;;;;;;;;;;;19.30;99.50;;;18.44;55.60;101321.13;4943751;28;19937;-76
2022/07/16 10:24:11;;;;;;;;;;;19.30;99.60;;;17.90;56.27;101315.97;4966936;28;20010;-76
2022/07/16 10:26:40;;;;;;;;;;;19.10;99.50;;;18.15;56.75;101331.13;4929970;28;19989;-76
2022/07/16 10:29:06;;;;;;;;;;;19.10;99.90;;;19.09;57.07;101331.69;4995970;28;19913;-77
2022/07/16 10:34:45;;;;;;;;;;;19.80;98.20;;;19.07;53.71;101334.47;4953639;28;20356;-77
2022/07/16 10:37:30;;;;;;;;;;;19.90;98.70;;;18.33;52.92;101331.66;4963393;28;19924;-76
2022/07/16 10:40:13;;;;;;;;;;;19.60;97.20;;;18.93;54.07;101345.28;4974533;28;19916;-77
2022/07/16 10:43:04;;;;;;;;;;;19.70;98.20;;;18.92;53.42;101343.56;4953119;28;20354;-77
2022/07/16 10:46:18;;;;;;;;;;;19.80;98.20;;;19.03;54.98;101349.00;4931271;28;20016;-76
2022/07/16 10:48:46;;;;;;;;;;;19.80;99.50;;;18.45;56.63;101356.63;4951117;28;19964;-77
2022/07/16 10:51:23;;;;;;;;;;;19.50;99.60;;;18.21;55.63;101353.88;4937170;28;20183;-77
2022/07/16 10:53:58;;;;;;;;;;;19.40;98.80;;;18.34;56.47;101362.72;4935152;28;19921;-77
2022/07/16 10:56:46;;;;;;;;;;;19.30;99.60;;;18.75;55.78;101363.44;4993167;28;19932;-77
2022/07/16 10:59:19;;;;;;;;;;;19.50;99.90;;;19.04;57.37;101362.22;4983613;28;20314;-76
2022/07/16 11:01:46;;;;;;;;;;;19.60;99.90;;;18.45;54.53;101359.31;4965593;28;20326;-76
2022/07/16 11:04:18;;;;;;;;;;;19.50;98.50;;;18.41;57.09;101368.47;4970938;28;20298;-76
2022/07/16 11:06:54;;;;;;;;;;;19.40;99.70;;;18.72;57.32;101376.97;4967824;28;20382;-77
2022/07/16 11:09:33;;;;;;;;;;;19.40;99.90;;;18.87;54.09;101365.25;4971095;28;19913;-77
2022/07/16 11:12:29;;;;;;;;;;;19.60;98.60;;;19.29;54.22;101395.16;4945881;28;19917;-76
2022/07/16 11:14:59;;;;;;;;;;;19.90;99.00;;;18.53;54.91;101372.97;4993311;28;20384;-76
2022/07/16 11:17:30;;;;;;;;;;;19.70;98.50;;;17.97;56.74;101375.00;4953054;28;20374;-76
2022/07/16 11:19:59;;;;;;;;;;;19.40;99.20;;;18.12;57.96;101375.78;4936137;28;19924;-76
2022/07/16 11:22:28;;;;;;;;;;;19.20;99.90;;;18.54;57.83;101384.47;4969924;28;20465;-77
2022/07/16 11:24:56;;;;;;;;;;;19.40;99.90;;;18.73;57.90;101374.22;4980812;28;20005;-76
2022/07/16 11:27:38;;;;;;;;;;;19.60;99.90;;;19.17;57.69;101398.72;4993747;28;19917;-77